Time;durP1;ratioP1;P1;durP2;ratioP2;P2;SDS_P1;SDS_P2;PMS_P1;PMS_P2;Temp;Humidity;BMP_temperature;BMP_pressure;BME280_temperature;BME280_humidity;BME280_pressure;Samples;Min_cycle;Max_cycle;Signal;HPM_P1;HPM_P2
2024/03/07 00:00:14;;;;;;;10.10;4.00;;;;;;;31.59;24.58;100523.31;7397248;19;20022;-53
2024/03/07 00:02:41;;;;;;;6.80;3.13;;;;;;;31.21;24.77;100529.00;7397843;19;20070;-53
2024/03/07 00:05:08;;;;;;;12.40;3.08;;;;;;;31.32;24.63;100529.19;7401597;19;20014;-52
2024/03/07 00:07:34;;;;;;;9.90;3.42;;;;;;;31.51;24.03;100521.94;7398460;19;20379;-52
2024/03/07 00:10:03;;;;;;;6.13;1.92;;;;;;;32.05;24.15;100528.84;7397455;19;20018;-52
2024/03/07 00:15:59;;;;;;;12.25;3.28;;;;;;;32.53;23.31;100520.78;7396065;19;20429;-53
2024/03/07 00:18:25;;;;;;;8.23;2.08;;;;;;;32.65;23.13;100518.78;7397314;19;20447;-53
2024/03/07 00:20:52;;;;;;;5.45;2.75;;;;;;;32.73;23.04;100522.22;7395410;19;20015;-52
2024/03/07 00:23:18;;;;;;;17.75;3.50;;;;;;;32.32;23.21;100522.84;7398988;19;20030;-52
2024/03/07 00:25:45;;;;;;;4.50;2.88;;;;;;;32.46;23.20;100527.50;7400425;19;20038;-52
2024/03/07 00:28:11;;;;;;;6.53;2.20;;;;;;;30.72;24.45;100533.16;7401676;19;20007;-52
2024/03/07 00:30:37;;;;;;;8.82;3.13;;;;;;;29.59;25.36;100526.91;7395456;19;20344;-52
2024/03/07 00:33:04;;;;;;;10.95;3.55;;;;;;;29.21;25.45;100526.63;7398624;19;20010;-52
2024/03/07 00:35:30;;;;;;;8.63;2.05;;;;;;;28.22;26.04;100525.91;7400124;19;20006;-52
2024/03/07 00:37:57;;;;;;;15.10;3.53;;;;;;;29.11;25.38;100528.59;7397271;19;20007;-52
2024/03/07 00:40:23;;;;;;;13.48;5.85;;;;;;;28.27;26.44;100533.50;7396935;19;20021;-52
2024/03/07 00:42:50;;;;;;;7.50;3.38;;;;;;;27.82;26.68;100533.75;7397539;19;20011;-52
2024/03/07 00:45:17;;;;;;;6.80;3.08;;;;;;;28.53;26.10;100527.97;7398252;19;20014;-52
2024/03/07 00:47:43;;;;;;;8.73;2.63;;;;;;;28.51;26.18;100530.66;7399743;19;20453;-52
2024/03/07 00:50:10;;;;;;;6.28;2.42;;;;;;;28.18;26.09;100532.03;7398018;19;20015;-52
2024/03/07 00:52:36;;;;;;;5.47;2.80;;;;;;;27.91;26.88;100536.00;7397648;19;20017;-52
2024/03/07 00:55:03;;;;;;;8.95;2.50;;;;;;;28.21;26.20;100519.41;7397441;19;20045;-52
2024/03/07 00:57:29;;;;;;;6.68;3.13;;;;;;;28.16;26.36;100528.22;7399929;19;20038;-52
2024/03/07 00:59:56;;;;;;;16.95;3.95;;;;;;;28.04;26.04;100527.94;7399773;19;20010;-52
2024/03/07 01:02:22;;;;;;;6.78;3.58;;;;;;;28.89;25.45;100523.88;7395429;19;20014;-52
2024/03/07 01:04:48;;;;;;;9.05;3.80;;;;;;;28.09;26.39;100521.19;7396917;19;20006;-52
2024/03/07 01:07:14;;;;;;;6.22;3.75;;;;;;;28.34;26.20;100522.00;7398051;19;20048;-52
2024/03/07 01:09:40;;;;;;;7.40;4.20;;;;;;;28.39;25.74;100526.72;7396549;19;20030;-52
2024/03/07 01:12:07;;;;;;;11.05;3.28;;;;;;;28.65;26.13;100536.13;7398785;19;20485;-52
2024/03/07 01:14:33;;;;;;;8.30;2.67;;;;;;;28.96;25.92;100525.88;7397667;19;20412;-52
2024/03/07 01:16:59;;;;;;;5.85;2.58;;;;;;;28.73;25.95;100528.97;7397417;19;20006;-52
2024/03/07 01:19:25;;;;;;;7.10;2.05;;;;;;;29.06;25.78;100529.63;7396670;19;20346;-52
2024/03/07 01:21:51;;;;;;;4.53;2.28;;;;;;;28.29;26.71;100525.84;7397690;19;20015;-52
2024/03/07 01:24:20;;;;;;;11.57;1.98;;;;;;;28.61;26.55;100533.66;7395679;19;20033;-52
2024/03/07 01:26:46;;;;;;;5.28;3.28;;;;;;;27.62;26.83;100532.69;7398331;19;20011;-52
2024/03/07 01:29:13;;;;;;;1.90;1.27;;;;;;;27.59;27.65;100528.16;7396864;19;20014;-52
2024/03/07 01:31:39;;;;;;;21.00;4.20;;;;;;;27.17;27.89;100539.31;7398291;19;20014;-52
2024/03/07 01:34:05;;;;;;;14.25;2.85;;;;;;;27.67;27.30;100535.34;7396154;19;20007;-52
2024/03/07 01:36:31;;;;;;;4.93;2.22;;;;;;;27.92;26.79;100537.50;7396613;19;20010;-52
2024/03/07 01:38:58;;;;;;;18.25;5.85;;;;;;;27.78;27.27;100531.28;7396291;19;20034;-52
2024/03/07 01:41:24;;;;;;;8.05;4.50;;;;;;;26.90;27.67;100543.91;7395565;19;20052;-52
2024/03/07 01:43:50;;;;;;;7.60;2.10;;;;;;;28.10;26.83;100536.28;7396297;19;20018;-52
2024/03/07 01:46:17;;;;;;;5.13;2.08;;;;;;;27.64;26.92;100535.72;7395737;19;20360;-52
2024/03/07 01:48:43;;;;;;;6.63;3.47;;;;;;;27.32;27.79;100538.50;7395677;19;20043;-52
2024/03/07 01:51:09;;;;;;;5.43;2.30;;;;;;;26.65;28.00;100537.22;7396522;19;20039;-52
2024/03/07 01:53:36;;;;;;;12.80;3.33;;;;;;;26.90;27.71;100533.25;7395958;19;20355;-52
2024/03/07 01:56:02;;;;;;;10.93;3.15;;;;;;;27.53;27.52;100531.19;7395896;19;20010;-52
2024/03/07 01:58:29;;;;;;;7.82;2.97;;;;;;;27.34;27.16;100528.00;7394747;19;20018;-52
2024/03/07 02:00:56;;;;;;;4.00;2.22;;;;;;;27.16;27.67;100526.31;7394580;19;20042;-52
2024/03/07 02:03:22;;;;;;;9.13;4.10;;;;;;;28.51;26.69;100524.91;7395310;19;20018;-52
2024/03/07 02:05:48;;;;;;;10.50;3.90;;;;;;;27.36;27.52;100518.88;7394042;19;20333;-52
2024/03/07 02:08:14;;;;;;;13.25;3.70;;;;;;;27.82;26.69;100511.59;7398494;19;20324;-52
2024/03/07 02:10:41;;;;;;;8.95;3.88;;;;;;;27.02;27.48;100516.47;7395512;19;20430;-52
2024/03/07 02:13:08;;;;;;;4.53;2.42;;;;;;;26.49;27.71;100522.19;7399187;19;20025;-52
2024/03/07 02:15:34;;;;;;;7.15;2.47;;;;;;;26.44;28.20;100525.25;7394338;19;20044;-52
2024/03/07 02:18:00;;;;;;;11.45;3.53;;;;;;;27.08;27.18;100525.59;7394617;19;20027;-52
2024/03/07 02:20:27;;;;;;;26.25;4.05;;;;;;;27.47;27.12;100527.03;7394902;19;20014;-52
2024/03/07 02:22:55;;;;;;;7.93;2.10;;;;;;;28.72;26.32;100515.97;7399303;19;20021;-52
2024/03/07 02:25:21;;;;;;;2.10;1.70;;;;;;;29.29;25.57;100512.16;7395557;19;20006;-52
2024/03/07 02:27:47;;;;;;;2.78;1.80;;;;;;;29.38;25.20;100511.50;7398761;19;20481;-52
2024/03/07 02:30:14;;;;;;;9.60;3.22;;;;;;;29.45;25.65;100522.13;7394016;19;20094;-52
2024/03/07 02:32:40;;;;;;;4.93;2.63;;;;;;;29.23;25.50;100518.19;7398125;19;20069;-52
2024/03/07 02:35:08;;;;;;;7.53;2.30;;;;;;;29.27;25.42;100523.47;7394434;19;20048;-52
2024/03/07 02:37:34;;;;;;;3.47;3.17;;;;;;;28.99;25.24;100516.09;7394903;19;20007;-52
2024/03/07 02:40:01;;;;;;;7.05;2.83;;;;;;;29.45;25.37;100522.91;7394558;19;20076;-52
2024/03/07 02:42:27;;;;;;;3.63;1.80;;;;;;;29.53;25.40;100522.78;7395760;19;20683;-52
2024/03/07 02:44:53;;;;;;;12.57;4.57;;;;;;;29.43;25.31;100517.00;7395121;19;20007;-52
2024/03/07 02:47:19;;;;;;;2.55;2.35;;;;;;;30.00;25.36;100525.25;7394020;19;20043;-52
2024/03/07 02:49:45;;;;;;;1.27;1.27;;;;;;;29.70;25.32;100514.16;7393700;19;20042;-52
2024/03/07 02:52:12;;;;;;;5.60;1.70;;;;;;;28.93;25.72;100512.72;7397096;19;20021;-52
2024/03/07 02:54:38;;;;;;;6.25;2.47;;;;;;;28.81;25.79;100514.56;7393712;19;20023;-52
2024/03/07 02:57:05;;;;;;;7.32;3.15;;;;;;;29.02;25.68;100517.81;7395915;19;20072;-52
2024/03/07 02:59:32;;;;;;;7.15;3.08;;;;;;;29.66;25.41;100508.06;7393971;19;20017;-52
2024/03/07 03:01:58;;;;;;;7.43;2.25;;;;;;;28.83;26.24;100509.75;7391617;19;20017;-52
2024/03/07 03:04:24;;;;;;;5.15;2.63;;;;;;;27.63;27.23;100505.59;7395855;19;20021;-52
2024/03/07 03:06:50;;;;;;;9.10;3.78;;;;;;;27.04;27.45;100514.56;7393849;19;20014;-52
2024/03/07 03:09:21;;;;;;;9.73;3.83;;;;;;;27.13;27.95;100503.84;7394124;19;20017;-52
2024/03/07 03:11:47;;;;;;;7.90;2.88;;;;;;;27.07;28.10;100512.66;7393525;19;20014;-52
2024/03/07 03:14:14;;;;;;;7.57;3.00;;;;;;;27.32;27.81;100504.16;7393809;19;20019;-52
2024/03/07 03:16:43;;;;;;;15.95;4.78;;;;;;;27.27;27.99;100507.97;7396083;19;20010;-52
2024/03/07 03:19:10;;;;;;;8.05;2.40;;;;;;;27.15;28.26;100507.66;7393372;19;20408;-52
2024/03/07 03:21:37;;;;;;;6.22;1.88;;;;;;;27.61;28.03;100508.28;7391293;19;20015;-52
2024/03/07 03:24:04;;;;;;;4.28;2.15;;;;;;;27.85;27.99;100501.88;7392907;19;20014;-52
2024/03/07 03:26:31;;;;;;;4.20;2.67;;;;;;;28.18;27.81;100502.63;7392630;19;20014;-52
2024/03/07 03:28:58;;;;;;;6.40;2.20;;;;;;;28.25;27.97;100502.59;7396772;19;20369;-52
2024/03/07 03:31:25;;;;;;;15.77;2.85;;;;;;;28.23;27.85;100498.78;7393436;19;20019;-52
2024/03/07 03:33:51;;;;;;;3.33;1.92;;;;;;;28.25;27.98;100501.81;7392955;19;20017;-52
2024/03/07 03:36:18;;;;;;;4.68;2.83;;;;;;;28.51;27.42;100502.00;7392397;19;20017;-52
2024/03/07 03:38:45;;;;;;;4.78;2.17;;;;;;;28.73;27.69;100499.53;7391931;19;20027;-52
2024/03/07 03:41:16;;;;;;;12.30;2.90;;;;;;;28.61;27.40;100496.38;7394571;19;20007;-52
2024/03/07 03:43:43;;;;;;;15.95;2.78;;;;;;;28.08;27.50;100499.66;7392599;19;20010;-52
2024/03/07 03:46:12;;;;;;;7.57;3.10;;;;;;;27.39;27.91;100497.69;7392736;19;20010;-52
2024/03/07 03:48:41;;;;;;;18.73;3.65;;;;;;;27.44;27.58;100494.59;7393050;19;20019;-52
2024/03/07 03:51:08;;;;;;;10.50;3.20;;;;;;;26.85;28.30;100499.16;7392445;19;20398;-52
2024/03/07 03:53:36;;;;;;;2.28;1.88;;;;;;;26.61;28.26;100509.06;7396831;19;20014;-53
2024/03/07 03:56:04;;;;;;;5.60;2.08;;;;;;;26.80;27.69;100498.00;7392460;19;20081;-52
2024/03/07 03:58:31;;;;;;;8.18;3.50;;;;;;;26.79;27.54;100499.34;7393430;19;20495;-52
2024/03/07 04:00:58;;;;;;;4.93;2.22;;;;;;;26.46;27.92;100500.47;7392598;19;20352;-52
2024/03/07 04:03:26;;;;;;;10.32;2.58;;;;;;;26.46;27.83;100506.19;7391237;19;20021;-52
2024/03/07 04:05:52;;;;;;;3.10;1.77;;;;;;;26.40;27.75;100497.03;7396742;19;20018;-52
2024/03/07 04:08:20;;;;;;;5.82;1.90;;;;;;;26.34;27.85;100505.03;7392981;19;20019;-52
2024/03/07 04:10:46;;;;;;;16.25;3.25;;;;;;;26.94;27.24;100498.56;7392329;19;20011;-52
2024/03/07 04:13:13;;;;;;;6.80;3.42;;;;;;;26.92;27.08;100504.84;7390791;19;20015;-52
2024/03/07 04:15:39;;;;;;;6.47;2.95;;;;;;;25.56;28.06;100512.44;7390758;19;20479;-52
2024/03/07 04:18:06;;;;;;;17.38;3.53;;;;;;;25.42;27.95;100502.50;7391968;19;20015;-52
2024/03/07 04:20:32;;;;;;;7.22;2.47;;;;;;;26.07;27.37;100509.56;7391334;19;20066;-52
2024/03/07 04:22:58;;;;;;;5.18;4.10;;;;;;;26.48;27.24;100506.38;7392436;19;20018;-52
2024/03/07 04:25:25;;;;;;;2.75;2.55;;;;;;;26.90;27.00;100504.66;7391407;19;20034;-52
2024/03/07 04:27:51;;;;;;;17.23;3.30;;;;;;;25.30;28.21;100518.38;7393931;19;20082;-52
2024/03/07 04:30:17;;;;;;;6.07;3.17;;;;;;;26.15;27.21;100510.34;7397587;19;20015;-52
2024/03/07 04:32:43;;;;;;;19.45;4.00;;;;;;;26.85;26.90;100507.72;7398466;19;20046;-52
2024/03/07 04:35:10;;;;;;;10.02;2.33;;;;;;;25.64;27.58;100513.25;7397971;19;20003;-52
2024/03/07 04:37:37;;;;;;;13.77;2.08;;;;;;;26.05;27.44;100512.22;7401704;19;20021;-52
2024/03/07 04:40:04;;;;;;;3.05;1.85;;;;;;;25.69;27.57;100514.38;7399144;19;20019;-52
2024/03/07 04:42:30;;;;;;;16.63;5.43;;;;;;;25.57;27.59;100513.97;7395108;19;20011;-52
2024/03/07 04:44:56;;;;;;;2.63;1.58;;;;;;;25.50;27.12;100515.47;7397998;19;20010;-52
2024/03/07 04:47:23;;;;;;;8.38;3.20;;;;;;;25.67;27.44;100517.81;7397973;19;20097;-52
2024/03/07 04:49:49;;;;;;;4.57;2.13;;;;;;;27.44;25.83;100511.03;7400519;19;20022;-52
2024/03/07 04:52:15;;;;;;;2.22;2.03;;;;;;;26.78;26.60;100514.97;7398831;19;20007;-52
2024/03/07 04:54:41;;;;;;;2.67;1.05;;;;;;;25.93;27.07;100522.44;7398648;19;20066;-52
2024/03/07 04:57:07;;;;;;;4.72;2.35;;;;;;;26.14;27.07;100523.13;7400091;19;20017;-52
2024/03/07 04:59:33;;;;;;;2.45;2.08;;;;;;;26.22;27.19;100527.50;7397262;19;20096;-52
2024/03/07 05:01:59;;;;;;;5.10;1.70;;;;;;;26.31;27.24;100534.75;7398907;19;20035;-52
2024/03/07 05:04:29;;;;;;;15.07;2.15;;;;;;;26.33;27.39;100529.22;7397147;19;20073;-52
2024/03/07 05:06:55;;;;;;;5.50;3.50;;;;;;;26.52;27.31;100532.47;7397889;19;20026;-52
2024/03/07 05:09:25;;;;;;;12.07;4.00;;;;;;;25.89;28.11;100533.47;7397031;19;20007;-52
2024/03/07 05:11:51;;;;;;;1.50;1.20;;;;;;;26.09;27.99;100529.75;7396785;19;20462;-52
2024/03/07 05:14:18;;;;;;;5.30;1.92;;;;;;;25.72;28.50;100536.09;7400368;19;20474;-52
2024/03/07 05:16:44;;;;;;;11.00;2.17;;;;;;;25.64;28.76;100536.06;7397560;19;20467;-52
2024/03/07 05:19:10;;;;;;;5.03;1.27;;;;;;;25.72;29.03;100541.78;7397281;19;20018;-52
2024/03/07 05:24:04;;;;;;;3.80;2.38;;;;;;;25.87;29.17;100547.56;7399788;19;20087;-52
2024/03/07 05:26:34;;;;;;;6.88;2.50;;;;;;;26.00;29.13;100542.47;7398269;19;20331;-52
2024/03/07 05:29:07;;;;;;;5.68;2.58;;;;;;;25.97;29.30;100540.72;7397080;19;20018;-52
2024/03/07 05:31:35;;;;;;;7.43;1.70;;;;;;;26.10;29.66;100534.13;7397028;19;20023;-52
2024/03/07 05:34:08;;;;;;;4.70;1.90;;;;;;;25.43;30.49;100544.72;7397878;19;20010;-52
2024/03/07 05:36:35;;;;;;;9.60;4.32;;;;;;;25.58;30.27;100544.78;7397124;19;20374;-52
2024/03/07 05:39:08;;;;;;;13.32;2.55;;;;;;;25.42;30.30;100546.06;7395119;19;20010;-52
2024/03/07 05:41:34;;;;;;;20.58;2.67;;;;;;;26.97;29.26;100538.19;7395108;19;20474;-52
2024/03/07 05:44:00;;;;;;;60.75;9.43;;;;;;;24.96;31.18;100547.06;7396279;19;20014;-52
2024/03/07 05:46:26;;;;;;;26.98;8.50;;;;;;;24.94;31.16;100552.56;7399003;19;20425;-52
2024/03/07 05:48:56;;;;;;;20.75;6.65;;;;;;;26.71;29.96;100554.94;7396255;19;20014;-52
2024/03/07 05:51:23;;;;;;;11.80;5.38;;;;;;;23.98;32.13;100555.41;7395653;19;20031;-52
2024/03/07 05:53:50;;;;;;;8.27;2.45;;;;;;;22.40;33.77;100568.03;7395383;19;20031;-52
2024/03/07 05:56:16;;;;;;;12.93;2.47;;;;;;;22.66;33.57;100555.22;7395543;19;20015;-52
2024/03/07 05:58:42;;;;;;;10.10;3.33;;;;;;;23.62;33.34;100560.09;7397782;19;20011;-52
2024/03/07 06:01:08;;;;;;;4.72;2.42;;;;;;;25.27;31.11;100559.44;7395390;19;20367;-52
2024/03/07 06:03:35;;;;;;;11.13;2.38;;;;;;;25.88;30.59;100561.25;7395797;19;20019;-52
2024/03/07 06:06:01;;;;;;;7.63;2.13;;;;;;;25.90;30.91;100557.84;7396126;19;20906;-52
2024/03/07 06:08:27;;;;;;;18.98;4.15;;;;;;;25.25;31.87;100557.13;7394806;19;20011;-52
2024/03/07 06:10:53;;;;;;;8.07;3.90;;;;;;;26.36;30.52;100556.63;7396504;19;20011;-52
2024/03/07 06:13:19;;;;;;;23.50;3.40;;;;;;;25.97;30.93;100551.38;7395550;19;20006;-52
2024/03/07 06:15:47;;;;;;;18.33;3.15;;;;;;;26.12;30.83;100551.44;7395492;19;20022;-52
2024/03/07 06:18:14;;;;;;;11.35;3.33;;;;;;;26.47;30.66;100547.69;7394968;19;20011;-52
2024/03/07 06:20:41;;;;;;;10.75;3.05;;;;;;;26.89;30.33;100554.59;7395071;19;20013;-52
2024/03/07 06:23:08;;;;;;;9.60;2.75;;;;;;;26.72;30.12;100559.34;7398345;19;20007;-52
2024/03/07 06:25:37;;;;;;;11.43;3.33;;;;;;;26.47;30.57;100559.13;7394447;19;20474;-52
2024/03/07 06:28:10;;;;;;;18.58;3.10;;;;;;;26.53;30.57;100562.56;7398528;19;20007;-52
2024/03/07 06:30:42;;;;;;;4.25;2.15;;;;;;;26.58;30.55;100558.00;7395169;19;20033;-52
2024/03/07 06:33:18;;;;;;;3.22;2.30;;;;;;;27.03;29.84;100553.03;7393150;19;20014;-52
2024/03/07 06:35:44;;;;;;;27.30;4.97;;;;;;;27.42;29.77;100548.03;7398632;19;20037;-52
2024/03/07 06:38:10;;;;;;;9.77;2.50;;;;;;;27.22;29.59;100551.88;7394524;19;20014;-53
2024/03/07 06:40:40;;;;;;;13.02;4.10;;;;;;;27.53;29.34;100548.38;7394490;19;20014;-52
2024/03/07 06:43:06;;;;;;;22.35;3.28;;;;;;;28.18;28.56;100551.31;7393790;19;20017;-53
2024/03/07 06:45:33;;;;;;;10.75;3.20;;;;;;;27.38;29.65;100559.88;7393374;19;20065;-52
2024/03/07 06:48:00;;;;;;;16.45;3.75;;;;;;;27.26;29.76;100560.81;7398190;19;20018;-53
2024/03/07 06:50:28;;;;;;;7.40;2.50;;;;;;;26.27;30.25;100554.34;7393185;19;20015;-52
2024/03/07 06:52:55;;;;;;;8.45;3.55;;;;;;;26.06;31.08;100553.69;7393416;19;20006;-52
2024/03/07 06:55:22;;;;;;;21.60;5.00;;;;;;;26.00;31.07;100556.72;7393771;19;20025;-52
2024/03/07 06:57:48;;;;;;;15.90;4.68;;;;;;;26.14;31.16;100557.38;7397120;19;20022;-52
2024/03/07 07:00:21;;;;;;;18.05;2.75;;;;;;;26.83;30.49;100562.59;7394496;19;20042;-53
2024/03/07 07:02:49;;;;;;;11.05;2.85;;;;;;;28.69;28.66;100550.78;7391922;19;20006;-52
2024/03/07 07:05:15;;;;;;;7.60;2.20;;;;;;;30.13;27.73;100550.72;7394184;19;20014;-52
2024/03/07 07:07:42;;;;;;;7.35;1.65;;;;;;;30.19;27.80;100548.34;7397074;19;20069;-52
2024/03/07 07:10:15;;;;;;;18.48;3.33;;;;;;;29.30;27.94;100548.91;7393027;19;20010;-52
2024/03/07 07:12:46;;;;;;;6.18;2.83;;;;;;;29.52;27.93;100550.00;7392348;19;20006;-53
2024/03/07 07:15:15;;;;;;;14.57;3.42;;;;;;;29.81;27.75;100550.97;7393904;19;20341;-52
2024/03/07 07:17:45;;;;;;;9.63;3.40;;;;;;;30.02;27.35;100556.28;7395855;19;20010;-53
2024/03/07 07:20:13;;;;;;;11.15;2.63;;;;;;;29.42;28.38;100552.78;7393682;19;20363;-53
2024/03/07 07:22:40;;;;;;;22.27;2.53;;;;;;;29.98;27.06;100548.84;7391882;19;20011;-52
2024/03/07 07:25:13;;;;;;;18.98;4.05;;;;;;;30.28;27.40;100555.47;7393294;19;20018;-53
2024/03/07 07:27:50;;;;;;;14.27;2.45;;;;;;;30.69;26.84;100554.47;7395542;19;20522;-52
2024/03/07 07:30:18;;;;;;;7.53;2.85;;;;;;;30.89;26.94;100547.44;7392774;19;20021;-52
2024/03/07 07:32:45;;;;;;;4.40;2.78;;;;;;;30.97;26.15;100555.97;7393137;19;20014;-53
2024/03/07 07:35:12;;;;;;;6.47;2.85;;;;;;;30.93;26.35;100547.75;7393390;19;20014;-52
2024/03/07 07:37:39;;;;;;;6.10;3.05;;;;;;;30.85;26.66;100550.00;7394560;19;20031;-52
2024/03/07 07:40:12;;;;;;;4.65;2.60;;;;;;;30.68;26.46;100547.22;7392840;19;20420;-52
2024/03/07 07:42:39;;;;;;;15.27;4.75;;;;;;;30.54;26.99;100543.22;7390778;19;20043;-53
2024/03/07 07:45:07;;;;;;;17.38;3.00;;;;;;;29.92;27.44;100542.59;7392915;19;20006;-53
2024/03/07 07:47:36;;;;;;;15.02;4.60;;;;;;;28.89;27.86;100552.53;7391976;19;20031;-52
2024/03/07 07:50:02;;;;;;;6.60;3.35;;;;;;;28.33;28.39;100554.84;7392112;19;20371;-53
2024/03/07 07:52:29;;;;;;;6.53;4.05;;;;;;;28.45;28.29;100537.97;7393330;19;20082;-52
2024/03/07 07:54:55;;;;;;;6.32;2.13;;;;;;;30.66;26.59;100541.31;7393114;19;20166;-52
2024/03/07 07:57:21;;;;;;;10.50;1.75;;;;;;;30.72;26.76;100541.78;7395872;19;20025;-52
2024/03/07 07:59:49;;;;;;;14.60;3.63;;;;;;;30.88;26.69;100536.56;7394088;19;20010;-52
2024/03/07 08:02:15;;;;;;;21.45;1.95;;;;;;;30.96;26.78;100535.06;7390812;19;20015;-52
2024/03/07 08:04:42;;;;;;;4.88;1.83;;;;;;;31.04;26.40;100532.03;7398272;19;20376;-52
2024/03/07 08:07:08;;;;;;;13.40;2.88;;;;;;;30.53;26.75;100539.63;7398838;19;20030;-52
2024/03/07 08:09:34;;;;;;;4.65;3.08;;;;;;;30.49;26.75;100532.78;7399824;19;20016;-52
2024/03/07 08:12:02;;;;;;;25.40;3.90;;;;;;;29.72;27.39;100532.31;7399677;19;20015;-52
2024/03/07 08:14:29;;;;;;;6.57;3.15;;;;;;;29.34;27.78;100537.75;7399243;19;20014;-52
2024/03/07 08:16:56;;;;;;;20.40;5.47;;;;;;;29.96;27.14;100525.69;7399411;19;20010;-53
2024/03/07 08:19:23;;;;;;;13.15;1.95;;;;;;;29.57;27.36;100532.50;7399655;19;20907;-52
2024/03/07 08:21:49;;;;;;;2.78;1.90;;;;;;;29.71;27.85;100521.41;7397971;19;20010;-52
2024/03/07 08:24:15;;;;;;;10.32;2.85;;;;;;;29.59;28.20;100529.03;7399155;19;20431;-52
2024/03/07 08:26:44;;;;;;;3.70;1.67;;;;;;;29.83;27.87;100522.44;7400100;19;20014;-52
2024/03/07 08:29:11;;;;;;;6.30;2.58;;;;;;;30.06;27.98;100522.13;7398877;19;20019;-52
2024/03/07 08:31:37;;;;;;;12.32;3.88;;;;;;;30.51;27.47;100516.47;7399288;19;20852;-52
2024/03/07 08:34:04;;;;;;;3.42;1.88;;;;;;;30.87;27.05;100515.66;7399247;19;20010;-53
2024/03/07 08:36:30;;;;;;;12.10;3.65;;;;;;;30.52;26.87;100517.19;7399031;19;20014;-52
2024/03/07 08:38:56;;;;;;;3.50;1.92;;;;;;;30.10;27.25;100519.56;7398947;19;20351;-52
2024/03/07 08:41:22;;;;;;;5.03;2.28;;;;;;;29.61;27.39;100517.72;7396872;19;20014;-52
2024/03/07 08:43:49;;;;;;;16.85;3.95;;;;;;;29.52;27.70;100515.53;7398770;19;20439;-52
2024/03/07 08:46:15;;;;;;;11.00;3.28;;;;;;;29.11;27.85;100517.88;7396535;19;20333;-52
2024/03/07 08:48:41;;;;;;;12.93;6.65;;;;;;;29.23;28.22;100513.19;7398624;19;20037;-52
2024/03/07 08:51:07;;;;;;;17.17;2.95;;;;;;;29.16;28.22;100510.41;7398229;19;20038;-52
2024/03/07 08:53:33;;;;;;;15.20;3.58;;;;;;;30.51;26.84;100509.94;7402263;19;20015;-53
2024/03/07 08:56:01;;;;;;;6.47;2.90;;;;;;;30.93;26.80;100513.25;7397827;19;20010;-52
2024/03/07 08:58:28;;;;;;;10.95;2.45;;;;;;;31.04;26.59;100504.03;7397390;19;20082;-52
2024/03/07 09:00:54;;;;;;;8.35;3.72;;;;;;;31.02;26.87;100511.72;7399312;19;20020;-52
2024/03/07 09:03:21;;;;;;;6.45;2.42;;;;;;;30.88;26.77;100514.31;7400507;19;20359;-52
2024/03/07 09:05:48;;;;;;;6.38;3.28;;;;;;;31.26;26.76;100514.34;7396539;19;20069;-52
2024/03/07 09:08:14;;;;;;;14.07;3.22;;;;;;;31.13;26.93;100516.91;7396688;19;20066;-52
2024/03/07 09:10:41;;;;;;;5.63;2.08;;;;;;;31.34;26.31;100514.94;7398017;19;20018;-52
2024/03/07 09:13:07;;;;;;;8.63;2.42;;;;;;;30.68;26.95;100518.47;7397390;19;20010;-52
2024/03/07 09:15:33;;;;;;;6.22;1.92;;;;;;;30.50;26.91;100519.91;7396170;19;20010;-52
2024/03/07 09:18:01;;;;;;;18.52;3.28;;;;;;;30.65;27.09;100508.16;7402312;19;20010;-52
2024/03/07 09:20:27;;;;;;;12.77;2.65;;;;;;;30.79;27.05;100506.38;7397994;19;20034;-53
2024/03/07 09:22:54;;;;;;;4.00;2.28;;;;;;;30.63;26.99;100505.13;7393415;19;20034;-52
2024/03/07 09:25:20;;;;;;;16.80;3.17;;;;;;;31.15;26.92;100509.19;7398069;19;20386;-52
2024/03/07 09:27:47;;;;;;;15.63;2.80;;;;;;;30.21;27.81;100510.41;7399717;19;20034;-52
2024/03/07 09:30:14;;;;;;;9.05;2.50;;;;;;;29.81;28.06;100505.78;7397145;19;20039;-53
2024/03/07 09:32:41;;;;;;;6.45;2.45;;;;;;;30.72;27.28;100501.50;7396147;19;20011;-52
2024/03/07 09:35:11;;;;;;;6.80;3.28;;;;;;;31.03;27.47;100496.00;7396342;19;20011;-53
2024/03/07 09:37:42;;;;;;;9.95;3.15;;;;;;;31.02;26.79;100494.47;7396787;19;20011;-52
2024/03/07 09:40:11;;;;;;;24.30;3.10;;;;;;;30.38;26.68;100493.09;7399788;19;20014;-52
2024/03/07 09:42:47;;;;;;;6.57;2.45;;;;;;;30.11;27.16;100501.72;7394184;19;20018;-53
2024/03/07 09:45:18;;;;;;;10.25;1.73;;;;;;;29.93;27.29;100483.78;7395206;19;20082;-52
2024/03/07 09:47:51;;;;;;;15.13;3.38;;;;;;;30.52;27.03;100488.44;7396698;19;20035;-52
2024/03/07 09:50:21;;;;;;;5.93;2.53;;;;;;;30.45;26.94;100495.09;7395865;19;20014;-52
2024/03/07 09:52:52;;;;;;;4.15;2.50;;;;;;;30.60;26.73;100494.84;7395566;19;20010;-52
2024/03/07 09:55:19;;;;;;;2.70;1.25;;;;;;;30.55;26.82;100493.00;7395814;19;20506;-52
2024/03/07 09:57:50;;;;;;;7.15;2.90;;;;;;;29.61;27.91;100483.25;7399060;19;20999;-52
2024/03/07 10:00:24;;;;;;;8.48;2.95;;;;;;;28.29;28.13;100490.69;7395406;19;20018;-53
2024/03/07 10:02:55;;;;;;;8.43;2.88;;;;;;;28.26;28.88;100494.75;7393531;19;20023;-53
2024/03/07 10:05:22;;;;;;;8.68;2.85;;;;;;;28.40;28.55;100487.38;7396431;19;20015;-53
2024/03/07 10:07:50;;;;;;;5.47;2.80;;;;;;;28.61;28.80;100487.03;7395906;19;20015;-53
2024/03/07 10:10:17;;;;;;;7.57;2.35;;;;;;;28.71;28.52;100482.16;7395930;19;20038;-53
2024/03/07 10:12:43;;;;;;;11.57;2.67;;;;;;;28.64;28.29;100489.47;7394221;19;20078;-53
2024/03/07 10:15:12;;;;;;;9.05;2.75;;;;;;;28.36;28.23;100484.94;7395894;19;20024;-53
2024/03/07 10:17:40;;;;;;;4.15;1.98;;;;;;;27.16;29.33;100480.56;7395537;19;20007;-53
2024/03/07 10:20:13;;;;;;;5.18;2.17;;;;;;;26.39;30.36;100500.47;7395179;19;20010;-53
2024/03/07 10:22:42;;;;;;;4.03;1.73;;;;;;;26.09;31.15;100489.78;7393489;19;20014;-53
2024/03/07 10:25:10;;;;;;;6.90;2.63;;;;;;;25.24;32.13;100495.72;7393689;19;20019;-53
2024/03/07 10:27:38;;;;;;;9.68;3.15;;;;;;;25.56;31.71;100501.78;7397525;19;20359;-53
2024/03/07 10:30:07;;;;;;;7.68;3.17;;;;;;;24.77;32.41;100495.25;7395394;19;20014;-53
2024/03/07 10:32:34;;;;;;;8.35;3.72;;;;;;;24.52;33.06;100491.22;7394542;19;20018;-53
2024/03/07 10:35:00;;;;;;;14.02;2.75;;;;;;;24.03;32.97;100491.91;7396317;19;20011;-53
2024/03/07 10:37:26;;;;;;;8.85;1.95;;;;;;;25.02;32.30;100482.09;7394660;19;20017;-53
2024/03/07 10:39:52;;;;;;;13.57;3.25;;;;;;;25.15;32.38;100482.00;7395109;19;20643;-53
2024/03/07 10:42:19;;;;;;;9.05;3.10;;;;;;;24.94;32.75;100481.31;7393329;19;20017;-53
2024/03/07 10:44:49;;;;;;;8.93;3.28;;;;;;;24.46;33.01;100494.22;7394957;19;20033;-53
2024/03/07 10:47:20;;;;;;;12.55;2.55;;;;;;;24.22;33.32;100486.03;7395583;19;20006;-53
2024/03/07 10:50:14;;;;;;;5.95;2.80;;;;;;;23.92;33.65;100491.41;7395121;19;20015;-53
2024/03/07 10:52:46;;;;;;;8.90;3.92;;;;;;;25.41;32.28;100496.00;7394209;19;20027;-53
2024/03/07 10:55:25;;;;;;;9.70;3.22;;;;;;;25.97;32.20;100488.56;7394399;19;20034;-53
2024/03/07 10:57:58;;;;;;;9.75;2.85;;;;;;;25.86;32.08;100486.09;7397389;19;20533;-54
2024/03/07 11:00:43;;;;;;;11.63;3.70;;;;;;;26.02;32.14;100487.66;7398095;19;20074;-53
2024/03/07 11:03:09;;;;;;;14.63;3.65;;;;;;;26.15;32.29;100481.78;7393976;19;20011;-53
2024/03/07 11:05:36;;;;;;;10.77;3.40;;;;;;;26.83;31.62;100485.41;7394326;19;20018;-53
2024/03/07 11:08:06;;;;;;;8.23;3.88;;;;;;;27.21;31.11;100478.84;7392210;19;20474;-53
2024/03/07 11:10:35;;;;;;;9.65;2.67;;;;;;;26.79;31.02;100499.34;7392977;19;20022;-53
2024/03/07 11:13:03;;;;;;;17.65;4.97;;;;;;;27.05;31.26;100484.59;7397403;19;20018;-53
2024/03/07 11:15:30;;;;;;;6.05;2.67;;;;;;;26.66;30.97;100493.78;7393990;19;20078;-53
2024/03/07 11:17:56;;;;;;;8.30;2.67;;;;;;;27.14;30.63;100491.09;7392961;19;20455;-53
2024/03/07 11:20:26;;;;;;;5.45;1.98;;;;;;;26.09;31.33;100489.78;7393527;19;20066;-54
2024/03/07 11:22:54;;;;;;;13.20;3.30;;;;;;;26.03;32.01;100483.47;7392934;19;20021;-53
2024/03/07 11:25:22;;;;;;;8.30;2.97;;;;;;;25.41;32.58;100484.59;7392254;19;20070;-53
2024/03/07 11:27:56;;;;;;;8.57;3.28;;;;;;;25.97;31.90;100491.44;7394359;19;20018;-53